sensor_id;sensor_type;location;lat;lon;timestamp;pressure;altitude;pressure_sealevel;temperature;humidity
17781;BME280;8498;52.516;13.790;2022-10-31T00:00:29;101335.03;;;11.82;90.49
17781;BME280;8498;52.516;13.790;2022-10-31T00:05:52;101332.63;;;11.77;90.33
17781;BME280;8498;52.516;13.790;2022-10-31T00:11:14;101341.94;;;11.70;90.68
17781;BME280;8498;52.516;13.790;2022-10-31T00:16:36;101342.97;;;11.68;90.23
17781;BME280;8498;52.516;13.790;2022-10-31T00:21:59;101332.03;;;11.58;90.45
17781;BME280;8498;52.516;13.790;2022-10-31T00:27:21;101328.44;;;11.59;90.25
17781;BME280;8498;52.516;13.790;2022-10-31T00:32:43;101330.16;;;11.60;90.28
17781;BME280;8498;52.516;13.790;2022-10-31T00:38:06;101341.06;;;11.56;90.66
17781;BME280;8498;52.516;13.790;2022-10-31T00:43:28;101346.88;;;11.48;90.09
17781;BME280;8498;52.516;13.790;2022-10-31T00:48:51;101349.88;;;11.42;90.26
17781;BME280;8498;52.516;13.790;2022-10-31T00:54:13;101353.97;;;11.33;90.12
17781;BME280;8498;52.516;13.790;2022-10-31T00:59:36;101357.69;;;11.31;89.97
17781;BME280;8498;52.516;13.790;2022-10-31T01:04:59;101351.88;;;11.24;90.02
17781;BME280;8498;52.516;13.790;2022-10-31T01:10:21;101355.94;;;11.16;89.88
17781;BME280;8498;52.516;13.790;2022-10-31T01:15:53;101358.78;;;11.13;89.88
17781;BME280;8498;52.516;13.790;2022-10-31T01:21:19;101357.44;;;11.06;90.09
17781;BME280;8498;52.516;13.790;2022-10-31T01:26:43;101354.19;;;11.00;90.21
17781;BME280;8498;52.516;13.790;2022-10-31T01:32:05;101363.88;;;11.01;90.29
17781;BME280;8498;52.516;13.790;2022-10-31T01:37:27;101369.19;;;11.01;89.69
17781;BME280;8498;52.516;13.790;2022-10-31T01:42:50;101365.94;;;10.96;89.35
17781;BME280;8498;52.516;13.790;2022-10-31T01:48:15;101359.63;;;10.83;90.29
17781;BME280;8498;52.516;13.790;2022-10-31T01:53:39;101371.91;;;10.86;90.29
17781;BME280;8498;52.516;13.790;2022-10-31T01:59:04;101373.09;;;10.80;90.46
17781;BME280;8498;52.516;13.790;2022-10-31T02:04:29;101377.47;;;10.81;89.93
17781;BME280;8498;52.516;13.790;2022-10-31T02:09:53;101371.66;;;10.75;90.16
17781;BME280;8498;52.516;13.790;2022-10-31T02:15:17;101376.97;;;10.75;90.41
17781;BME280;8498;52.516;13.790;2022-10-31T02:38:25;101384.47;;;10.68;90.34
17781;BME280;8498;52.516;13.790;2022-10-31T02:44:16;101390.88;;;10.64;90.67
17781;BME280;8498;52.516;13.790;2022-10-31T02:49:54;101383.69;;;10.66;90.20
17781;BME280;8498;52.516;13.790;2022-10-31T03:00:55;101383.84;;;10.63;90.26
17781;BME280;8498;52.516;13.790;2022-10-31T03:06:56;101386.78;;;10.58;90.07
17781;BME280;8498;52.516;13.790;2022-10-31T03:12:28;101385.06;;;10.57;90.27
17781;BME280;8498;52.516;13.790;2022-10-31T03:17:54;101387.97;;;10.53;90.32
17781;BME280;8498;52.516;13.790;2022-10-31T03:23:21;101399.53;;;10.52;90.41
17781;BME280;8498;52.516;13.790;2022-10-31T03:28:55;101401.75;;;10.59;89.95
17781;BME280;8498;52.516;13.790;2022-10-31T03:34:19;101409.63;;;10.61;90.34
17781;BME280;8498;52.516;13.790;2022-10-31T03:39:44;101414.19;;;10.59;90.47
17781;BME280;8498;52.516;13.790;2022-10-31T03:45:12;101417.97;;;10.55;90.18
17781;BME280;8498;52.516;13.790;2022-10-31T03:56:41;101439.13;;;10.41;90.81
17781;BME280;8498;52.516;13.790;2022-10-31T04:02:07;101439.03;;;10.42;90.45
17781;BME280;8498;52.516;13.790;2022-10-31T04:07:37;101448.38;;;10.34;91.18
17781;BME280;8498;52.516;13.790;2022-10-31T04:13:07;101455.06;;;10.25;91.36
17781;BME280;8498;52.516;13.790;2022-10-31T04:18:38;101451.84;;;10.18;91.45
17781;BME280;8498;52.516;13.790;2022-10-31T04:24:00;101447.31;;;10.20;91.62
17781;BME280;8498;52.516;13.790;2022-10-31T04:29:24;101451.16;;;10.15;91.61
17781;BME280;8498;52.516;13.790;2022-10-31T04:34:48;101452.16;;;10.12;90.82
17781;BME280;8498;52.516;13.790;2022-10-31T04:40:10;101455.06;;;10.08;90.94
17781;BME280;8498;52.516;13.790;2022-10-31T04:45:55;101456.97;;;10.06;90.56
17781;BME280;8498;52.516;13.790;2022-10-31T04:51:18;101461.81;;;9.98;90.44
17781;BME280;8498;52.516;13.790;2022-10-31T04:56:40;101456.25;;;10.02;90.84
17781;BME280;8498;52.516;13.790;2022-10-31T05:02:09;101458.84;;;10.04;90.37
17781;BME280;8498;52.516;13.790;2022-10-31T05:07:51;101453.69;;;10.01;90.59
17781;BME280;8498;52.516;13.790;2022-10-31T05:13:15;101462.84;;;9.95;90.01
17781;BME280;8498;52.516;13.790;2022-10-31T05:19:00;101463.16;;;9.89;90.38
17781;BME280;8498;52.516;13.790;2022-10-31T05:24:32;101469.38;;;9.88;90.22
17781;BME280;8498;52.516;13.790;2022-10-31T05:29:54;101473.84;;;9.87;90.31
17781;BME280;8498;52.516;13.790;2022-10-31T05:35:20;101469.38;;;9.88;89.92
17781;BME280;8498;52.516;13.790;2022-10-31T05:41:04;101477.53;;;9.85;89.80
17781;BME280;8498;52.516;13.790;2022-10-31T05:46:28;101484.09;;;9.78;89.91
17781;BME280;8498;52.516;13.790;2022-10-31T05:52:17;101491.38;;;9.74;90.79
17781;BME280;8498;52.516;13.790;2022-10-31T05:57:47;101492.28;;;9.73;90.66
17781;BME280;8498;52.516;13.790;2022-10-31T06:03:10;101500.00;;;9.78;90.94
17781;BME280;8498;52.516;13.790;2022-10-31T06:08:44;101493.69;;;9.80;90.43
17781;BME280;8498;52.516;13.790;2022-10-31T06:14:09;101496.41;;;9.79;90.62
17781;BME280;8498;52.516;13.790;2022-10-31T06:19:43;101493.69;;;9.80;90.61
17781;BME280;8498;52.516;13.790;2022-10-31T06:25:09;101507.75;;;9.82;90.76
17781;BME280;8498;52.516;13.790;2022-10-31T06:30:35;101510.91;;;9.89;91.10
17781;BME280;8498;52.516;13.790;2022-10-31T06:35:58;101521.25;;;9.95;91.12
17781;BME280;8498;52.516;13.790;2022-10-31T06:41:21;101522.00;;;9.97;91.10
17781;BME280;8498;52.516;13.790;2022-10-31T06:46:46;101524.34;;;10.03;91.39
17781;BME280;8498;52.516;13.790;2022-10-31T06:52:32;101534.63;;;10.09;91.61
17781;BME280;8498;52.516;13.790;2022-10-31T06:57:56;101536.81;;;10.18;91.27
17781;BME280;8498;52.516;13.790;2022-10-31T07:03:24;101543.47;;;10.27;91.23
17781;BME280;8498;52.516;13.790;2022-10-31T07:08:47;101543.75;;;10.38;90.84
17781;BME280;8498;52.516;13.790;2022-10-31T07:14:09;101546.09;;;10.44;91.14
17781;BME280;8498;52.516;13.790;2022-10-31T07:19:32;101551.69;;;10.55;91.80
17781;BME280;8498;52.516;13.790;2022-10-31T07:24:55;101558.13;;;10.67;91.28
17781;BME280;8498;52.516;13.790;2022-10-31T07:30:58;101563.72;;;10.78;91.73
17781;BME280;8498;52.516;13.790;2022-10-31T07:36:21;101557.53;;;10.93;91.97
17781;BME280;8498;52.516;13.790;2022-10-31T07:41:46;101560.97;;;11.11;91.29
17781;BME280;8498;52.516;13.790;2022-10-31T07:47:13;101568.25;;;11.39;92.80
17781;BME280;8498;52.516;13.790;2022-10-31T07:53:09;101560.00;;;11.73;91.90
17781;BME280;8498;52.516;13.790;2022-10-31T07:58:58;101571.19;;;12.24;92.66
17781;BME280;8498;52.516;13.790;2022-10-31T08:04:20;101564.72;;;12.85;94.62
17781;BME280;8498;52.516;13.790;2022-10-31T08:10:02;101574.06;;;13.33;95.15
17781;BME280;8498;52.516;13.790;2022-10-31T08:15:26;101575.47;;;13.66;95.69
17781;BME280;8498;52.516;13.790;2022-10-31T08:20:48;101578.63;;;13.98;96.71
17781;BME280;8498;52.516;13.790;2022-10-31T08:26:11;101579.63;;;14.22;97.16
17781;BME280;8498;52.516;13.790;2022-10-31T08:31:34;101586.16;;;14.43;98.35
17781;BME280;8498;52.516;13.790;2022-10-31T08:37:22;101593.44;;;14.66;98.23
17781;BME280;8498;52.516;13.790;2022-10-31T08:42:56;101584.09;;;14.85;98.23
17781;BME280;8498;52.516;13.790;2022-10-31T08:48:18;101591.78;;;15.02;98.82
17781;BME280;8498;52.516;13.790;2022-10-31T08:53:41;101579.84;;;15.19;98.53
17781;BME280;8498;52.516;13.790;2022-10-31T08:59:32;101586.13;;;15.30;98.61
17781;BME280;8498;52.516;13.790;2022-10-31T09:05:12;101586.94;;;15.43;98.78
17781;BME280;8498;52.516;13.790;2022-10-31T09:10:36;101596.09;;;15.65;98.71
17781;BME280;8498;52.516;13.790;2022-10-31T09:15:58;101606.28;;;15.84;98.36
17781;BME280;8498;52.516;13.790;2022-10-31T09:21:21;101595.00;;;16.02;97.83
17781;BME280;8498;52.516;13.790;2022-10-31T09:26:44;101592.72;;;16.20;96.77
17781;BME280;8498;52.516;13.790;2022-10-31T09:32:13;101595.84;;;16.38;95.92
17781;BME280;8498;52.516;13.790;2022-10-31T09:37:40;101597.81;;;16.58;94.77
17781;BME280;8498;52.516;13.790;2022-10-31T09:54:17;101598.81;;;16.91;92.48
17781;BME280;8498;52.516;13.790;2022-10-31T09:59:43;101605.63;;;16.95;92.32
17781;BME280;8498;52.516;13.790;2022-10-31T10:05:12;101605.28;;;17.10;91.36
17781;BME280;8498;52.516;13.790;2022-10-31T10:23:05;101602.22;;;19.03;82.63
17781;BME280;8498;52.516;13.790;2022-10-31T10:28:29;101603.22;;;18.72;82.51
17781;BME280;8498;52.516;13.790;2022-10-31T10:34:12;101595.19;;;18.30;83.84
17781;BME280;8498;52.516;13.790;2022-10-31T10:39:43;101594.94;;;18.13;84.75
17781;BME280;8498;52.516;13.790;2022-10-31T10:45:15;101595.09;;;18.42;84.60
17781;BME280;8498;52.516;13.790;2022-10-31T10:50:57;101583.00;;;19.18;82.27
17781;BME280;8498;52.516;13.790;2022-10-31T10:56:33;101576.81;;;19.94;79.04
17781;BME280;8498;52.516;13.790;2022-10-31T11:01:58;101584.00;;;20.51;76.02
17781;BME280;8498;52.516;13.790;2022-10-31T11:07:22;101581.13;;;20.90;73.31
17781;BME280;8498;52.516;13.790;2022-10-31T11:18:34;101570.75;;;21.22;72.19
17781;BME280;8498;52.516;13.790;2022-10-31T11:24:03;101557.56;;;21.10;71.57
17781;BME280;8498;52.516;13.790;2022-10-31T11:29:26;101562.50;;;20.60;73.10
17781;BME280;8498;52.516;13.790;2022-10-31T11:34:52;101567.22;;;20.58;74.18
17781;BME280;8498;52.516;13.790;2022-10-31T11:40:21;101557.94;;;20.70;73.30
17781;BME280;8498;52.516;13.790;2022-10-31T11:45:44;101543.63;;;21.14;72.47
17781;BME280;8498;52.516;13.790;2022-10-31T11:51:06;101548.25;;;21.67;70.16
17781;BME280;8498;52.516;13.790;2022-10-31T11:56:40;101549.06;;;22.03;68.66
17781;BME280;8498;52.516;13.790;2022-10-31T12:02:17;101551.56;;;22.48;67.50
17781;BME280;8498;52.516;13.790;2022-10-31T12:07:40;101542.47;;;22.57;66.71
17781;BME280;8498;52.516;13.790;2022-10-31T12:13:32;101547.41;;;22.62;65.58
17781;BME280;8498;52.516;13.790;2022-10-31T12:20:05;101546.16;;;22.48;65.26
17781;BME280;8498;52.516;13.790;2022-10-31T12:30:50;101545.72;;;22.35;64.92
17781;BME280;8498;52.516;13.790;2022-10-31T12:42:23;101537.94;;;22.32;65.03
17781;BME280;8498;52.516;13.790;2022-10-31T12:58:56;101525.53;;;22.21;66.38
17781;BME280;8498;52.516;13.790;2022-10-31T13:04:36;101529.00;;;22.14;66.60
17781;BME280;8498;52.516;13.790;2022-10-31T13:15:48;101516.47;;;22.13;65.70
17781;BME280;8498;52.516;13.790;2022-10-31T13:21:17;101501.28;;;21.94;65.36
17781;BME280;8498;52.516;13.790;2022-10-31T13:26:47;101503.22;;;21.84;66.04
17781;BME280;8498;52.516;13.790;2022-10-31T13:32:11;101494.91;;;21.77;68.80
17781;BME280;8498;52.516;13.790;2022-10-31T13:37:48;101494.16;;;21.67;67.85
17781;BME280;8498;52.516;13.790;2022-10-31T13:43:43;101489.53;;;21.42;68.33
17781;BME280;8498;52.516;13.790;2022-10-31T13:54:53;101489.16;;;20.92;70.59
17781;BME280;8498;52.516;13.790;2022-10-31T14:05:42;101482.72;;;20.47;72.64
17781;BME280;8498;52.516;13.790;2022-10-31T14:11:06;101477.38;;;20.28;74.22
17781;BME280;8498;52.516;13.790;2022-10-31T14:16:31;101480.25;;;20.17;75.17
17781;BME280;8498;52.516;13.790;2022-10-31T14:21:54;101468.09;;;19.94;76.50
17781;BME280;8498;52.516;13.790;2022-10-31T14:32:42;101468.44;;;19.52;79.09
17781;BME280;8498;52.516;13.790;2022-10-31T14:49:28;101456.75;;;18.75;82.45
17781;BME280;8498;52.516;13.790;2022-10-31T14:54:56;101449.28;;;18.48;83.51
17781;BME280;8498;52.516;13.790;2022-10-31T15:00:22;101447.50;;;18.27;85.10
17781;BME280;8498;52.516;13.790;2022-10-31T15:05:50;101439.34;;;18.08;85.65
17781;BME280;8498;52.516;13.790;2022-10-31T15:11:37;101444.63;;;17.89;86.75
17781;BME280;8498;52.516;13.790;2022-10-31T15:17:02;101446.22;;;17.71;87.31
17781;BME280;8498;52.516;13.790;2022-10-31T15:22:27;101436.91;;;17.54;88.44
17781;BME280;8498;52.516;13.790;2022-10-31T15:27:52;101432.94;;;17.37;88.93
17781;BME280;8498;52.516;13.790;2022-10-31T15:33:20;101438.75;;;17.21;89.50
17781;BME280;8498;52.516;13.790;2022-10-31T15:38:42;101437.34;;;17.06;89.70
17781;BME280;8498;52.516;13.790;2022-10-31T15:44:29;101442.88;;;16.94;90.14
17781;BME280;8498;52.516;13.790;2022-10-31T15:49:56;101436.84;;;16.80;90.63
17781;BME280;8498;52.516;13.790;2022-10-31T15:55:21;101433.56;;;16.66;91.18
17781;BME280;8498;52.516;13.790;2022-10-31T16:00:56;101443.53;;;16.52;91.67
17781;BME280;8498;52.516;13.790;2022-10-31T16:06:20;101439.16;;;16.40;91.90
17781;BME280;8498;52.516;13.790;2022-10-31T16:11:43;101439.56;;;16.25;92.40
17781;BME280;8498;52.516;13.790;2022-10-31T16:17:11;101446.75;;;16.13;92.33
17781;BME280;8498;52.516;13.790;2022-10-31T16:22:37;101446.38;;;16.06;93.06
17781;BME280;8498;52.516;13.790;2022-10-31T16:28:04;101452.47;;;15.97;92.39
17781;BME280;8498;52.516;13.790;2022-10-31T16:33:33;101454.63;;;15.81;92.33
17781;BME280;8498;52.516;13.790;2022-10-31T16:38:58;101455.72;;;15.67;93.03
17781;BME280;8498;52.516;13.790;2022-10-31T16:44:26;101455.31;;;15.61;93.46
17781;BME280;8498;52.516;13.790;2022-10-31T16:49:49;101454.06;;;15.54;93.14
17781;BME280;8498;52.516;13.790;2022-10-31T16:55:13;101452.41;;;15.40;93.54
17781;BME280;8498;52.516;13.790;2022-10-31T17:00:36;101445.63;;;15.36;94.15
17781;BME280;8498;52.516;13.790;2022-10-31T17:05:59;101439.63;;;15.32;94.02
17781;BME280;8498;52.516;13.790;2022-10-31T17:11:23;101440.31;;;15.23;94.49
17781;BME280;8498;52.516;13.790;2022-10-31T17:16:47;101443.19;;;15.09;94.23
17781;BME280;8498;52.516;13.790;2022-10-31T17:22:10;101433.28;;;14.98;94.77
17781;BME280;8498;52.516;13.790;2022-10-31T17:27:33;101438.13;;;14.93;94.61
17781;BME280;8498;52.516;13.790;2022-10-31T17:32:56;101434.53;;;14.82;94.88
17781;BME280;8498;52.516;13.790;2022-10-31T17:38:19;101438.75;;;14.73;94.97
17781;BME280;8498;52.516;13.790;2022-10-31T17:43:41;101437.91;;;14.73;95.48
17781;BME280;8498;52.516;13.790;2022-10-31T17:49:04;101430.94;;;14.70;95.03
17781;BME280;8498;52.516;13.790;2022-10-31T17:54:28;101425.06;;;14.65;94.86
17781;BME280;8498;52.516;13.790;2022-10-31T17:59:50;101423.69;;;14.59;94.90
17781;BME280;8498;52.516;13.790;2022-10-31T18:05:12;101412.25;;;14.57;95.12
17781;BME280;8498;52.516;13.790;2022-10-31T18:10:37;101415.41;;;14.51;95.46
17781;BME280;8498;52.516;13.790;2022-10-31T18:16:00;101416.47;;;14.49;95.18
17781;BME280;8498;52.516;13.790;2022-10-31T18:21:22;101413.91;;;14.47;94.75
17781;BME280;8498;52.516;13.790;2022-10-31T18:26:44;101413.25;;;14.44;94.81
17781;BME280;8498;52.516;13.790;2022-10-31T18:32:07;101413.03;;;14.34;94.87
17781;BME280;8498;52.516;13.790;2022-10-31T18:37:30;101416.16;;;14.28;95.18
17781;BME280;8498;52.516;13.790;2022-10-31T18:42:54;101419.16;;;14.23;95.29
17781;BME280;8498;52.516;13.790;2022-10-31T18:48:16;101402.41;;;14.21;95.22
17781;BME280;8498;52.516;13.790;2022-10-31T18:53:39;101406.56;;;14.13;95.05
17781;BME280;8498;52.516;13.790;2022-10-31T18:59:01;101400.81;;;14.06;95.54
17781;BME280;8498;52.516;13.790;2022-10-31T19:04:24;101390.97;;;14.07;95.09
17781;BME280;8498;52.516;13.790;2022-10-31T19:09:46;101387.34;;;14.08;95.26
17781;BME280;8498;52.516;13.790;2022-10-31T19:15:09;101376.13;;;14.03;95.08
17781;BME280;8498;52.516;13.790;2022-10-31T19:20:31;101376.78;;;13.93;95.15
17781;BME280;8498;52.516;13.790;2022-10-31T19:25:57;101375.31;;;13.89;95.52
17781;BME280;8498;52.516;13.790;2022-10-31T19:31:20;101371.88;;;13.87;94.82
17781;BME280;8498;52.516;13.790;2022-10-31T19:36:42;101365.28;;;13.80;94.90
17781;BME280;8498;52.516;13.790;2022-10-31T19:42:05;101367.94;;;13.80;95.21
17781;BME280;8498;52.516;13.790;2022-10-31T19:47:27;101360.16;;;13.77;95.19
17781;BME280;8498;52.516;13.790;2022-10-31T19:52:50;101356.94;;;13.72;95.37
17781;BME280;8498;52.516;13.790;2022-10-31T19:58:12;101363.47;;;13.68;95.17
17781;BME280;8498;52.516;13.790;2022-10-31T20:03:37;101355.66;;;13.65;95.32
17781;BME280;8498;52.516;13.790;2022-10-31T20:09:02;101355.13;;;13.60;95.11
17781;BME280;8498;52.516;13.790;2022-10-31T20:14:24;101340.50;;;13.53;95.22
17781;BME280;8498;52.516;13.790;2022-10-31T20:19:47;101337.06;;;13.51;95.45
17781;BME280;8498;52.516;13.790;2022-10-31T20:25:09;101331.31;;;13.44;95.34
17781;BME280;8498;52.516;13.790;2022-10-31T20:30:34;101321.94;;;13.39;95.50
17781;BME280;8498;52.516;13.790;2022-10-31T20:35:58;101320.94;;;13.40;95.76
17781;BME280;8498;52.516;13.790;2022-10-31T20:41:20;101319.38;;;13.37;95.52
17781;BME280;8498;52.516;13.790;2022-10-31T20:46:42;101315.09;;;13.35;95.77
17781;BME280;8498;52.516;13.790;2022-10-31T20:52:04;101316.06;;;13.34;95.63
17781;BME280;8498;52.516;13.790;2022-10-31T20:57:26;101317.13;;;13.31;95.35
17781;BME280;8498;52.516;13.790;2022-10-31T21:02:49;101311.88;;;13.30;95.40
17781;BME280;8498;52.516;13.790;2022-10-31T21:08:11;101295.88;;;13.30;95.45
17781;BME280;8498;52.516;13.790;2022-10-31T21:13:38;101304.00;;;13.28;94.88
17781;BME280;8498;52.516;13.790;2022-10-31T21:19:03;101310.41;;;13.26;95.04
17781;BME280;8498;52.516;13.790;2022-10-31T21:24:25;101305.81;;;13.28;94.63
17781;BME280;8498;52.516;13.790;2022-10-31T21:29:50;101295.16;;;13.28;95.00
17781;BME280;8498;52.516;13.790;2022-10-31T21:35:12;101297.56;;;13.31;95.27
17781;BME280;8498;52.516;13.790;2022-10-31T21:40:36;101286.69;;;13.34;95.58
17781;BME280;8498;52.516;13.790;2022-10-31T21:51:33;101271.47;;;13.72;98.32
17781;BME280;8498;52.516;13.790;2022-10-31T21:56:59;101256.13;;;14.23;100.00
17781;BME280;8498;52.516;13.790;2022-10-31T22:02:22;101239.78;;;14.52;100.00
17781;BME280;8498;52.516;13.790;2022-10-31T22:07:44;101254.81;;;14.77;100.00
17781;BME280;8498;52.516;13.790;2022-10-31T22:13:07;101242.16;;;14.79;100.00
17781;BME280;8498;52.516;13.790;2022-10-31T22:18:29;101231.25;;;14.82;100.00
17781;BME280;8498;52.516;13.790;2022-10-31T22:23:53;101232.47;;;14.89;100.00
17781;BME280;8498;52.516;13.790;2022-10-31T22:29:18;101230.88;;;14.97;100.00
17781;BME280;8498;52.516;13.790;2022-10-31T22:34:40;101234.19;;;15.01;100.00
17781;BME280;8498;52.516;13.790;2022-10-31T22:40:03;101238.06;;;14.97;100.00
17781;BME280;8498;52.516;13.790;2022-10-31T22:45:25;101233.34;;;15.00;100.00
17781;BME280;8498;52.516;13.790;2022-10-31T22:50:47;101226.53;;;15.07;100.00
17781;BME280;8498;52.516;13.790;2022-10-31T22:56:13;101236.38;;;15.07;100.00
17781;BME280;8498;52.516;13.790;2022-10-31T23:01:36;101238.72;;;15.12;100.00
17781;BME280;8498;52.516;13.790;2022-10-31T23:06:59;101216.44;;;15.11;100.00
17781;BME280;8498;52.516;13.790;2022-10-31T23:12:21;101209.16;;;15.13;100.00
17781;BME280;8498;52.516;13.790;2022-10-31T23:18:02;101196.75;;;15.12;100.00
17781;BME280;8498;52.516;13.790;2022-10-31T23:23:25;101182.97;;;15.17;100.00
17781;BME280;8498;52.516;13.790;2022-10-31T23:28:48;101174.94;;;15.17;100.00
17781;BME280;8498;52.516;13.790;2022-10-31T23:34:10;101167.78;;;15.17;100.00
17781;BME280;8498;52.516;13.790;2022-10-31T23:39:33;101171.06;;;15.21;100.00
17781;BME280;8498;52.516;13.790;2022-10-31T23:44:55;101160.25;;;15.22;100.00
17781;BME280;8498;52.516;13.790;2022-10-31T23:50:17;101154.28;;;15.19;100.00
17781;BME280;8498;52.516;13.790;2022-10-31T23:55:40;101147.94;;;15.20;100.00
